Overseas Mindoro — V7RE6 — position and weather

sailwx.info

Track history (hours):
 
Tides and Currents Weather Stations Pressure Air Temp Water Temp Dewpoint Dewpoint Depression Visibility Wind Speed Wind Dir Waves Ship Positions

Overseas Mindoro

Last reported at 2015-Feb-10 19:33 UTC. Time now 2015-Mar-01 02:59 UTC.
Position N 29°50' W 116°49'.
Warning: this ship's position is 18 days out of date.

Length 238 m; draft 8.2 m.

Type: Tanker. MMSI: 538003473.

Date/timePositionNaut miles runAvg speedWind from/ knotsBaromVisibWave heightAir tempDewpointWater temp
2015-Feb-10 19:33N 29°50' W 116°49'49 9.5
2015-Feb-10 14:25N 30°37' W 117°04'23 9.6
2015-Feb-10 12:04N 30°58' W 117°13'5 9.2
2015-Feb-10 11:33N 31°02' W 117°15'10 9.5
2015-Feb-10 10:28N 31°13' W 117°17'9 9.6
2015-Feb-10 09:31N 31°21' W 117°20'9 9.6
2015-Feb-10 08:33N 31°30' W 117°24'10 9.7
2015-Feb-10 07:33N 31°39' W 117°29'10 9.5
2015-Feb-10 06:28N 31°49' W 117°32'9 9.5
2015-Feb-10 05:31N 31°58' W 117°33'9 9.4
2015-Feb-10 04:33N 32°07' W 117°35'9 9.4
2015-Feb-10 03:33N 32°16' W 117°38'1010.0
2015-Feb-10 02:33N 32°25' W 117°41'1010.0
2015-Feb-10 01:33N 32°35' W 117°45'10 9.7
2015-Feb-10 00:33N 32°43' W 117°52'10 9.9
2015-Feb-09 23:33N 32°52' W 117°55'1010.0
2015-Feb-09 22:33N 33°01' W 117°59'10 9.9
2015-Feb-09 21:33N 33°11' W 118°03'10 9.6
2015-Feb-09 20:33N 33°20' W 118°07'10 9.8
2015-Feb-09 19:32N 33°29' W 118°10'10 8.8
2015-Feb-09 18:25N 33°39' W 118°12'5 5.3
2015-Feb-09 17:31N 33°44' W 118°12'0 0.0
2015-Feb-09 16:31N 33°44' W 118°12'0 0.0
2015-Feb-09 15:28N 33°44' W 118°12'0 0.0
2015-Feb-09 14:16N 33°44' W 118°12'0 0.1
2015-Feb-09 13:22N 33°44' W 118°12'0 0.0
2015-Feb-09 12:31N 33°44' W 118°12'0 0.0
2015-Feb-09 11:28N 33°44' W 118°12'0 0.0
2015-Feb-09 10:28N 33°44' W 118°12'0 0.0
2015-Feb-09 09:25N 33°44' W 118°12'0 0.1
2015-Feb-09 08:19N 33°44' W 118°12'0 0.2
2015-Feb-09 07:25N 33°44' W 118°12'0 0.1
2015-Feb-09 06:19N 33°44' W 118°12'0 0.1
2015-Feb-09 05:07N 33°44' W 118°12'1 1.8
2015-Feb-09 04:33N 33°45' W 118°13'0 0.0
2015-Feb-09 03:33N 33°45' W 118°13'0 0.0
2015-Feb-09 02:33N 33°45' W 118°13'0 0.0
2015-Feb-09 01:33N 33°45' W 118°13'0 0.0
2015-Feb-09 00:33N 33°45' W 118°13'0 0.0
2015-Feb-08 23:33N 33°45' W 118°13'0 0.0
2015-Feb-08 22:33N 33°45' W 118°13'0 0.0
2015-Feb-08 21:33N 33°45' W 118°13'0 0.0
2015-Feb-08 20:30N 33°45' W 118°13'0 0.0
2015-Feb-08 19:33N 33°45' W 118°13'0 0.0
2015-Feb-08 18:33N 33°45' W 118°13'0 0.0
2015-Feb-08 17:33N 33°45' W 118°13'0 0.0
2015-Feb-08 16:33N 33°45' W 118°13'0 0.0
2015-Feb-08 15:33N 33°45' W 118°13'0 0.0
2015-Feb-08 14:33N 33°45' W 118°13'0 0.0
2015-Feb-08 13:33N 33°45' W 118°13'0 0.0
2015-Feb-08 12:33N 33°45' W 118°13'0 0.0
2015-Feb-08 11:33N 33°45' W 118°13'0 0.0
2015-Feb-08 10:33N 33°45' W 118°13'0 0.0
2015-Feb-08 09:33N 33°45' W 118°13'0 0.0
2015-Feb-08 08:33N 33°45' W 118°13'0 0.0
2015-Feb-08 07:33N 33°45' W 118°13'0 0.0
2015-Feb-08 06:33N 33°45' W 118°13'0 0.0
2015-Feb-08 05:33N 33°45' W 118°13'0 0.0
2015-Feb-08 04:33N 33°45' W 118°13'0 0.0
2015-Feb-08 03:33N 33°45' W 118°13'0 0.0
2015-Feb-08 02:33N 33°45' W 118°13'0 0.0
2015-Feb-08 01:33N 33°45' W 118°13'0 0.0
2015-Feb-08 00:33N 33°45' W 118°13'0 0.0
2015-Feb-07 23:33N 33°45' W 118°13'0 0.0
2015-Feb-07 22:33N 33°45' W 118°13'0 0.0
2015-Feb-07 21:33N 33°45' W 118°13'0 0.0
2015-Feb-07 20:33N 33°45' W 118°13'0 0.0
2015-Feb-07 19:33N 33°45' W 118°13'0 0.0
2015-Feb-07 18:33N 33°45' W 118°13'0 0.0
2015-Feb-07 17:33N 33°45' W 118°13'0 0.0
2015-Feb-07 16:33N 33°45' W 118°13'0 0.0
2015-Feb-07 15:33N 33°45' W 118°13'0 0.0
2015-Feb-07 14:33N 33°45' W 118°13'0 0.0
2015-Feb-07 13:33N 33°45' W 118°13'0 0.0
2015-Feb-07 12:30N 33°45' W 118°13'0 0.0
2015-Feb-07 11:33N 33°45' W 118°13'0 0.0
2015-Feb-07 10:33N 33°45' W 118°13'0 0.0
2015-Feb-07 09:33N 33°45' W 118°13'2 2.3
2015-Feb-07 08:33N 33°43' W 118°14'3 3.1
2015-Feb-07 07:34N 33°46' W 118°16'0 0.0
2015-Feb-07 06:31N 33°46' W 118°16'0 0.0
2015-Feb-07 05:34N 33°46' W 118°16'0 0.0
2015-Feb-07 04:34N 33°46' W 118°16'0 0.0
2015-Feb-07 03:34N 33°46' W 118°16'0 0.0
2015-Feb-07 02:31N 33°46' W 118°16'0 0.0
2015-Feb-07 01:34N 33°46' W 118°16'0 0.0
2015-Feb-07 00:34N 33°46' W 118°16'0 0.0
2015-Feb-06 23:34N 33°46' W 118°16'0 0.0
2015-Feb-06 22:34N 33°46' W 118°16'0 0.0
2015-Feb-06 21:34N 33°46' W 118°16'0 0.0
2015-Feb-06 20:34N 33°46' W 118°16'0 0.0
2015-Feb-06 19:31N 33°46' W 118°16'0 0.0
2015-Feb-06 18:34N 33°46' W 118°16'0 0.0
2015-Feb-06 17:34N 33°46' W 118°16'0 0.0
2015-Feb-06 16:34N 33°46' W 118°16'0 0.0
2015-Feb-06 15:33N 33°46' W 118°16'0 0.0
2015-Feb-06 14:34N 33°46' W 118°16'0 0.0
2015-Feb-06 13:30N 33°46' W 118°16'0 0.0
2015-Feb-06 12:30N 33°46' W 118°16'0 0.0
2015-Feb-06 11:33N 33°46' W 118°16'0 0.0
2015-Feb-06 10:33N 33°46' W 118°16'0 0.0
2015-Feb-06 09:33N 33°46' W 118°16'0 0.0
2015-Feb-06 08:33N 33°46' W 118°16'0 0.0
2015-Feb-06 07:33N 33°46' W 118°16'0 0.0
2015-Feb-06 06:33N 33°46' W 118°16'0 0.0
2015-Feb-06 05:33N 33°46' W 118°16'0 0.0
2015-Feb-06 04:33N 33°46' W 118°16'1 1.0
2015-Feb-06 03:33N 33°45' W 118°16'6 5.5
2015-Feb-06 02:32N 33°40' W 118°13'5 4.8
2015-Feb-06 01:32N 33°41' W 118°07'0 0.0
2015-Feb-06 00:32N 33°41' W 118°07'0 0.0
2015-Feb-05 23:32N 33°41' W 118°07'0 0.1
2015-Feb-05 22:32N 33°41' W 118°07'0 0.0
2015-Feb-05 21:32N 33°41' W 118°07'0 0.0
2015-Feb-05 20:32N 33°41' W 118°07'0 0.0
2015-Feb-05 19:32N 33°41' W 118°07'0 0.0
2015-Feb-05 18:32N 33°41' W 118°07'0 0.0
2015-Feb-05 17:32N 33°41' W 118°07'0 0.0
2015-Feb-05 16:32N 33°41' W 118°07'0 0.1
2015-Feb-05 15:29N 33°41' W 118°08'0 0.1
2015-Feb-05 14:32N 33°41' W 118°08'0 0.1
2015-Feb-05 13:32N 33°41' W 118°08'0 0.0
2015-Feb-05 12:33N 33°41' W 118°08'5 4.9
2015-Feb-05 11:33N 33°36' W 118°09'9 8.9
2015-Feb-05 10:33N 33°27' W 118°06'1111.0
2015-Feb-05 09:33N 33°17' W 118°02'1313.2
2015-Feb-05 08:33N 33°04' W 117°57'1313.4
2015-Feb-05 07:33N 32°52' W 117°53'1211.6
2015-Feb-05 06:33N 32°41' W 117°47'1313.3
2015-Feb-05 05:33N 32°28' W 117°52'7 7.4
2015-Feb-05 04:33N 32°21' W 117°54'10 9.6
2015-Feb-05 03:33N 32°12' W 117°58'1211.9
2015-Feb-05 02:33N 32°01' W 118°02'1313.3
2015-Feb-05 01:33N 31°48' W 118°07'1313.5
2015-Feb-05 00:33N 31°36' W 118°12'1313.3
2015-Feb-04 23:33N 31°23' W 118°17'1413.2
2015-Feb-04 22:32N 31°10' W 118°22'1312.7
2015-Feb-04 21:33N 30°58' W 118°27'1310.1
2015-Feb-04 20:14N 30°46' W 118°32'6 9.2
2015-Feb-04 19:32N 30°40' W 118°29'1111.2
2015-Feb-04 18:33N 30°30' W 118°24'1313.2
2015-Feb-04 17:33N 30°18' W 118°17'1313.3
2015-Feb-04 16:33N 30°05' W 118°11'2913.3
2015-Feb-04 14:21N 29°39' W 117°57'1513.2
2015-Feb-04 13:11N 29°25' W 117°50'812.9
2015-Feb-04 12:33N 29°17' W 117°46'1312.9
2015-Feb-04 11:33N 29°06' W 117°40'1313.2
2015-Feb-04 10:33N 28°53' W 117°34'5413.1
2015-Feb-04 06:28N 28°04' W 117°09'1213.2
2015-Feb-04 05:33N 27°53' W 117°04'2713.1
2015-Feb-04 03:32N 27°29' W 116°51'2613.2
2015-Feb-04 01:33N 27°05' W 116°39'1513.3
2015-Feb-04 00:27N 26°52' W 116°33'7813.2
2015-Feb-03 18:32N 25°45' W 115°48'  
Track history (hours):
 
Tides and Currents Weather Stations Pressure Air Temp Water Temp Dewpoint Dewpoint Depression Visibility Wind Speed Wind Dir Waves Ship Positions

Overseas Mindoro

Last reported at 2015-Feb-10 19:33 UTC. Time now 2015-Mar-01 02:59 UTC.
Position N 29°50' W 116°49'.
Warning: this ship's position is 18 days out of date.

Length 238 m; draft 8.2 m.

Type: Tanker. MMSI: 538003473.

Date/timePositionNaut miles runAvg speedWind from/ knotsBaromVisibWave heightAir tempDewpointWater temp
2015-Feb-10 19:33N 29°50' W 116°49'49 9.5
2015-Feb-10 14:25N 30°37' W 117°04'23 9.6
2015-Feb-10 12:04N 30°58' W 117°13'5 9.2
2015-Feb-10 11:33N 31°02' W 117°15'10 9.5
2015-Feb-10 10:28N 31°13' W 117°17'9 9.6
2015-Feb-10 09:31N 31°21' W 117°20'9 9.6
2015-Feb-10 08:33N 31°30' W 117°24'10 9.7
2015-Feb-10 07:33N 31°39' W 117°29'10 9.5
2015-Feb-10 06:28N 31°49' W 117°32'9 9.5
2015-Feb-10 05:31N 31°58' W 117°33'9 9.4
2015-Feb-10 04:33N 32°07' W 117°35'9 9.4
2015-Feb-10 03:33N 32°16' W 117°38'1010.0
2015-Feb-10 02:33N 32°25' W 117°41'1010.0
2015-Feb-10 01:33N 32°35' W 117°45'10 9.7
2015-Feb-10 00:33N 32°43' W 117°52'10 9.9
2015-Feb-09 23:33N 32°52' W 117°55'1010.0
2015-Feb-09 22:33N 33°01' W 117°59'10 9.9
2015-Feb-09 21:33N 33°11' W 118°03'10 9.6
2015-Feb-09 20:33N 33°20' W 118°07'10 9.8
2015-Feb-09 19:32N 33°29' W 118°10'10 8.8
2015-Feb-09 18:25N 33°39' W 118°12'5 5.3
2015-Feb-09 17:31N 33°44' W 118°12'0 0.0
2015-Feb-09 16:31N 33°44' W 118°12'0 0.0
2015-Feb-09 15:28N 33°44' W 118°12'0 0.0
2015-Feb-09 14:16N 33°44' W 118°12'0 0.1
2015-Feb-09 13:22N 33°44' W 118°12'0 0.0
2015-Feb-09 12:31N 33°44' W 118°12'0 0.0
2015-Feb-09 11:28N 33°44' W 118°12'0 0.0
2015-Feb-09 10:28N 33°44' W 118°12'0 0.0
2015-Feb-09 09:25N 33°44' W 118°12'0 0.1
2015-Feb-09 08:19N 33°44' W 118°12'0 0.2
2015-Feb-09 07:25N 33°44' W 118°12'0 0.1
2015-Feb-09 06:19N 33°44' W 118°12'0 0.1
2015-Feb-09 05:07N 33°44' W 118°12'1 1.8
2015-Feb-09 04:33N 33°45' W 118°13'0 0.0
2015-Feb-09 03:33N 33°45' W 118°13'0 0.0
2015-Feb-09 02:33N 33°45' W 118°13'0 0.0
2015-Feb-09 01:33N 33°45' W 118°13'0 0.0
2015-Feb-09 00:33N 33°45' W 118°13'0 0.0
2015-Feb-08 23:33N 33°45' W 118°13'0 0.0
2015-Feb-08 22:33N 33°45' W 118°13'0 0.0
2015-Feb-08 21:33N 33°45' W 118°13'0 0.0
2015-Feb-08 20:30N 33°45' W 118°13'0 0.0
2015-Feb-08 19:33N 33°45' W 118°13'0 0.0
2015-Feb-08 18:33N 33°45' W 118°13'0 0.0
2015-Feb-08 17:33N 33°45' W 118°13'0 0.0
2015-Feb-08 16:33N 33°45' W 118°13'0 0.0
2015-Feb-08 15:33N 33°45' W 118°13'0 0.0
2015-Feb-08 14:33N 33°45' W 118°13'0 0.0
2015-Feb-08 13:33N 33°45' W 118°13'0 0.0
2015-Feb-08 12:33N 33°45' W 118°13'0 0.0
2015-Feb-08 11:33N 33°45' W 118°13'0 0.0
2015-Feb-08 10:33N 33°45' W 118°13'0 0.0
2015-Feb-08 09:33N 33°45' W 118°13'0 0.0
2015-Feb-08 08:33N 33°45' W 118°13'0 0.0
2015-Feb-08 07:33N 33°45' W 118°13'0 0.0
2015-Feb-08 06:33N 33°45' W 118°13'0 0.0
2015-Feb-08 05:33N 33°45' W 118°13'0 0.0
2015-Feb-08 04:33N 33°45' W 118°13'0 0.0
2015-Feb-08 03:33N 33°45' W 118°13'0 0.0
2015-Feb-08 02:33N 33°45' W 118°13'0 0.0
2015-Feb-08 01:33N 33°45' W 118°13'0 0.0
2015-Feb-08 00:33N 33°45' W 118°13'0 0.0
2015-Feb-07 23:33N 33°45' W 118°13'0 0.0
2015-Feb-07 22:33N 33°45' W 118°13'0 0.0
2015-Feb-07 21:33N 33°45' W 118°13'0 0.0
2015-Feb-07 20:33N 33°45' W 118°13'0 0.0
2015-Feb-07 19:33N 33°45' W 118°13'0 0.0
2015-Feb-07 18:33N 33°45' W 118°13'0 0.0
2015-Feb-07 17:33N 33°45' W 118°13'0 0.0
2015-Feb-07 16:33N 33°45' W 118°13'0 0.0
2015-Feb-07 15:33N 33°45' W 118°13'0 0.0
2015-Feb-07 14:33N 33°45' W 118°13'0 0.0
2015-Feb-07 13:33N 33°45' W 118°13'0 0.0
2015-Feb-07 12:30N 33°45' W 118°13'0 0.0
2015-Feb-07 11:33N 33°45' W 118°13'0 0.0
2015-Feb-07 10:33N 33°45' W 118°13'0 0.0
2015-Feb-07 09:33N 33°45' W 118°13'2 2.3
2015-Feb-07 08:33N 33°43' W 118°14'3 3.1
2015-Feb-07 07:34N 33°46' W 118°16'0 0.0
2015-Feb-07 06:31N 33°46' W 118°16'0 0.0
2015-Feb-07 05:34N 33°46' W 118°16'0 0.0
2015-Feb-07 04:34N 33°46' W 118°16'0 0.0
2015-Feb-07 03:34N 33°46' W 118°16'0 0.0
2015-Feb-07 02:31N 33°46' W 118°16'0 0.0
2015-Feb-07 01:34N 33°46' W 118°16'0 0.0
2015-Feb-07 00:34N 33°46' W 118°16'0 0.0
2015-Feb-06 23:34N 33°46' W 118°16'0 0.0
2015-Feb-06 22:34N 33°46' W 118°16'0 0.0
2015-Feb-06 21:34N 33°46' W 118°16'0 0.0
2015-Feb-06 20:34N 33°46' W 118°16'0 0.0
2015-Feb-06 19:31N 33°46' W 118°16'0 0.0
2015-Feb-06 18:34N 33°46' W 118°16'0 0.0
2015-Feb-06 17:34N 33°46' W 118°16'0 0.0
2015-Feb-06 16:34N 33°46' W 118°16'0 0.0
2015-Feb-06 15:33N 33°46' W 118°16'0 0.0
2015-Feb-06 14:34N 33°46' W 118°16'0 0.0
2015-Feb-06 13:30N 33°46' W 118°16'0 0.0
2015-Feb-06 12:30N 33°46' W 118°16'0 0.0
2015-Feb-06 11:33N 33°46' W 118°16'0 0.0
2015-Feb-06 10:33N 33°46' W 118°16'0 0.0
2015-Feb-06 09:33N 33°46' W 118°16'0 0.0
2015-Feb-06 08:33N 33°46' W 118°16'0 0.0
2015-Feb-06 07:33N 33°46' W 118°16'0 0.0
2015-Feb-06 06:33N 33°46' W 118°16'0 0.0
2015-Feb-06 05:33N 33°46' W 118°16'0 0.0
2015-Feb-06 04:33N 33°46' W 118°16'1 1.0
2015-Feb-06 03:33N 33°45' W 118°16'6 5.5
2015-Feb-06 02:32N 33°40' W 118°13'5 4.8
2015-Feb-06 01:32N 33°41' W 118°07'0 0.0
2015-Feb-06 00:32N 33°41' W 118°07'0 0.0
2015-Feb-05 23:32N 33°41' W 118°07'0 0.1
2015-Feb-05 22:32N 33°41' W 118°07'0 0.0
2015-Feb-05 21:32N 33°41' W 118°07'0 0.0
2015-Feb-05 20:32N 33°41' W 118°07'0 0.0
2015-Feb-05 19:32N 33°41' W 118°07'0 0.0
2015-Feb-05 18:32N 33°41' W 118°07'0 0.0
2015-Feb-05 17:32N 33°41' W 118°07'0 0.0
2015-Feb-05 16:32N 33°41' W 118°07'0 0.1
2015-Feb-05 15:29N 33°41' W 118°08'0 0.1
2015-Feb-05 14:32N 33°41' W 118°08'0 0.1
2015-Feb-05 13:32N 33°41' W 118°08'0 0.0
2015-Feb-05 12:33N 33°41' W 118°08'5 4.9
2015-Feb-05 11:33N 33°36' W 118°09'9 8.9
2015-Feb-05 10:33N 33°27' W 118°06'1111.0
2015-Feb-05 09:33N 33°17' W 118°02'1313.2
2015-Feb-05 08:33N 33°04' W 117°57'1313.4
2015-Feb-05 07:33N 32°52' W 117°53'1211.6
2015-Feb-05 06:33N 32°41' W 117°47'1313.3
2015-Feb-05 05:33N 32°28' W 117°52'7 7.4
2015-Feb-05 04:33N 32°21' W 117°54'10 9.6
2015-Feb-05 03:33N 32°12' W 117°58'1211.9
2015-Feb-05 02:33N 32°01' W 118°02'1313.3
2015-Feb-05 01:33N 31°48' W 118°07'1313.5
2015-Feb-05 00:33N 31°36' W 118°12'1313.3
2015-Feb-04 23:33N 31°23' W 118°17'1413.2
2015-Feb-04 22:32N 31°10' W 118°22'1312.7
2015-Feb-04 21:33N 30°58' W 118°27'1310.1
2015-Feb-04 20:14N 30°46' W 118°32'6 9.2
2015-Feb-04 19:32N 30°40' W 118°29'1111.2
2015-Feb-04 18:33N 30°30' W 118°24'1313.2
2015-Feb-04 17:33N 30°18' W 118°17'1313.3
2015-Feb-04 16:33N 30°05' W 118°11'2913.3
2015-Feb-04 14:21N 29°39' W 117°57'1513.2
2015-Feb-04 13:11N 29°25' W 117°50'812.9
2015-Feb-04 12:33N 29°17' W 117°46'1312.9
2015-Feb-04 11:33N 29°06' W 117°40'1313.2
2015-Feb-04 10:33N 28°53' W 117°34'5413.1
2015-Feb-04 06:28N 28°04' W 117°09'1213.2
2015-Feb-04 05:33N 27°53' W 117°04'2713.1
2015-Feb-04 03:32N 27°29' W 116°51'2613.2
2015-Feb-04 01:33N 27°05' W 116°39'1513.3
2015-Feb-04 00:27N 26°52' W 116°33'7813.2
2015-Feb-03 18:32N 25°45' W 115°48'  

Dump ship's entire track history